Current Weather

North Texas Rgnl/Perrin Fld

Sherman/Denison, Texas (KGYI)

Report from: Friday, February 23, 2024 8:50 PM UTC
Current time: Friday, February 23, 2024 9:23 PM UTC

Nearby weather – Weather history – Daily summaries
Weather forecast

Temperature22.0°C (71.6°F)
Dew point-1.0°C (30.2°F)
Winds 14 kts (7.2 m/s, 16.1 mph) Northwest (310°)
Wind gusts 21 kts (10.8 m/s, 24.2 mph)
Visibility10 mi. (16.1 km)
Clouds Sky clear
Altimeter30.05 in.Hg (1018 mB)
Relative humidity22 %
Density altitude761 ft. (232 m)
Flight conditions Visual Meteorological Conditions
Raw dataKGYI 232050Z 31014G21KT 10SM CLR 22/M01 A3005
An error has occurred. This application may no longer respond until reloaded. Reload 🗙